Aérodrome :
LOGIN :

S'inscrire | Disclaimer

   EN    FR    IT 

 










Légende :    VFR   VFR Marginal   IFR   IFR Intensif   IFR Très Intensif
Visi : 
Plafond : 
>= 8 km
>= 3000ft
5 à 8 km
1000 à 3000 ft
1500m à 5 km
500 à 1000 ft
800 à 1500m
200 à 500 ft
< 800m
< 200 ft
Symboles :   Orages  Brouillard  Fortes neiges  Fortes précipitations  Vent > 20 kt
SIGMETs :   Divers  Orages  Givrage  Turbulence  Onde Orograph.  Cendres Volcan.






- Altitude de l'aérodrome : 1299 ft


EDTY - Adolf Würth

DERNIER METAR :
  • 101050Z 22008KT 190V250 9999 SCT034 BKN040 12/05 Q1015

METARs EXPIRÉS :
  • 101020Z 23008KT 200V260 9999 BKN033 OVC044 11/05 Q1015
  • 100950Z 23007KT 170V260 9999 BKN032 OVC040 11/04 Q1015
  • 100850Z 22007KT 9999 OVC031 10/04 Q1015
  • 100820Z 22007KT 190V250 9999 OVC030 10/04 Q1015

TAF TAF EDTY
Valide du 10 à 09h jusqu'au 10 à 18h UTC


100800Z 1009/1018 23008KT 9999 SCT030
BECMG 1015/1017 15004KT



MET'MAP, la Météo Aéronautique d'un coup d'oeil ! - Copyright ORBIFLY Décembre 2007 - Disclaimer

ORBIFLY MET'MAP TEAM :

Programmation & Développement : Alexandra Zaïnal
Sur une idée originale de : Baudouin d'Aumeries
Assistance à la programmation : Marc-Olivier Méhu
Soutien technique & logistique : Manuel Goepfert

Contact : metmap@orbifly.com




SOURCES & CREDITS :

   NOAA